Time;durP1;ratioP1;P1;durP2;ratioP2;P2;SDS_P1;SDS_P2;PMS_P1;PMS_P2;Temp;Humidity;BMP_temperature;BMP_pressure;BME280_temperature;BME280_humidity;BME280_pressure;Samples;Min_cycle;Max_cycle;Signal;HPM_P1;HPM_P2
2021/05/25 00:00:17;;;;;;;7.53;3.73;;;8.40;99.90;;;;;;5093375;28;20295;-80
2021/05/25 00:02:46;;;;;;;8.03;3.33;;;8.50;99.90;;;;;;5091803;28;20210;-79
2021/05/25 00:05:16;;;;;;;7.70;3.27;;;8.60;99.90;;;;;;5092515;28;20292;-78
2021/05/25 00:07:43;;;;;;;10.90;3.20;;;8.60;99.90;;;;;;5093470;28;20212;-79
2021/05/25 00:10:10;;;;;;;7.30;3.10;;;8.70;99.90;;;;;;5093241;28;20694;-80
2021/05/25 00:12:37;;;;;;;7.00;3.10;;;8.80;99.90;;;;;;5092807;28;20581;-77
2021/05/25 00:15:06;;;;;;;6.23;2.70;;;8.80;99.90;;;;;;5093534;28;20212;-79
2021/05/25 00:17:32;;;;;;;4.93;2.60;;;8.80;99.90;;;;;;5092931;28;20311;-78
2021/05/25 00:19:59;;;;;;;8.50;2.33;;;8.70;99.90;;;;;;5093287;28;20230;-78
2021/05/25 00:22:26;;;;;;;7.13;2.60;;;8.60;99.90;;;;;;5092350;28;20292;-78
2021/05/25 00:24:52;;;;;;;6.03;2.30;;;8.50;99.90;;;;;;5092831;28;20218;-79
2021/05/25 00:27:18;;;;;;;5.63;2.30;;;8.40;99.90;;;;;;5093128;28;20228;-77
2021/05/25 00:29:45;;;;;;;5.40;1.90;;;8.30;99.90;;;;;;5093219;28;20284;-79
2021/05/25 00:32:11;;;;;;;5.03;2.00;;;8.30;99.90;;;;;;5092673;28;20677;-78
2021/05/25 00:34:37;;;;;;;6.10;2.07;;;8.40;99.90;;;;;;5092483;28;20744;-76
2021/05/25 00:37:05;;;;;;;6.23;1.90;;;8.50;99.90;;;;;;5092735;28;20219;-79
2021/05/25 00:39:31;;;;;;;6.60;1.90;;;8.30;99.90;;;;;;5092950;28;20618;-79
2021/05/25 00:41:57;;;;;;;3.97;1.80;;;8.30;99.90;;;;;;5092284;28;20269;-78
2021/05/25 00:44:24;;;;;;;7.20;1.77;;;8.20;99.90;;;;;;5093033;28;20196;-79
2021/05/25 00:46:52;;;;;;;4.30;1.67;;;8.20;99.90;;;;;;5092566;28;20226;-79
2021/05/25 00:49:18;;;;;;;3.93;1.63;;;8.10;99.90;;;;;;5092721;28;20201;-78
2021/05/25 00:51:45;;;;;;;6.03;1.73;;;8.00;99.90;;;;;;5092801;28;20196;-78
2021/05/25 00:54:13;;;;;;;3.10;1.40;;;8.00;99.90;;;;;;5092420;28;20282;-78
2021/05/25 00:56:39;;;;;;;5.10;1.30;;;8.10;99.90;;;;;;5092699;28;20228;-79
2021/05/25 00:59:07;;;;;;;3.93;1.60;;;8.10;99.90;;;;;;5092206;28;20636;-79
2021/05/25 01:01:33;;;;;;;4.13;1.77;;;8.00;99.90;;;;;;5092052;28;20204;-79
2021/05/25 01:04:00;;;;;;;4.13;1.30;;;8.00;99.90;;;;;;5092065;28;20313;-78
2021/05/25 01:06:26;;;;;;;4.50;1.70;;;8.00;99.90;;;;;;5092841;28;20551;-79
2021/05/25 01:08:53;;;;;;;3.50;1.20;;;7.90;99.90;;;;;;5092613;28;20299;-78
2021/05/25 01:11:21;;;;;;;4.03;1.60;;;7.90;99.90;;;;;;5092402;28;20232;-79
2021/05/25 01:13:49;;;;;;;7.20;1.80;;;7.90;99.90;;;;;;5092339;28;20204;-79
2021/05/25 01:16:17;;;;;;;4.20;1.27;;;7.90;99.90;;;;;;5092675;28;20678;-78
2021/05/25 01:18:43;;;;;;;5.33;1.53;;;8.00;99.90;;;;;;5092411;28;20215;-77
2021/05/25 01:21:13;;;;;;;4.13;1.50;;;8.00;99.90;;;;;;5092718;28;20569;-80
2021/05/25 01:23:41;;;;;;;4.03;1.67;;;8.00;99.90;;;;;;5092531;28;20291;-79
2021/05/25 01:26:08;;;;;;;4.50;1.40;;;7.90;99.90;;;;;;5092573;28;20602;-80
2021/05/25 01:28:36;;;;;;;4.93;1.60;;;7.90;99.90;;;;;;5091758;28;20291;-80
2021/05/25 01:31:03;;;;;;;3.80;1.80;;;7.90;99.90;;;;;;5091577;28;20195;-78
2021/05/25 01:33:32;;;;;;;4.93;1.40;;;7.90;99.90;;;;;;5092537;28;20639;-78
2021/05/25 01:35:59;;;;;;;4.37;1.47;;;8.00;99.90;;;;;;5091480;28;20215;-79
2021/05/25 01:38:27;;;;;;;3.27;1.43;;;8.00;99.90;;;;;;5092216;28;20608;-79
2021/05/25 01:40:56;;;;;;;8.23;2.03;;;8.10;99.90;;;;;;5091726;28;20663;-77
2021/05/25 01:43:23;;;;;;;2.50;1.20;;;8.20;99.90;;;;;;5092064;28;20194;-80
2021/05/25 01:45:50;;;;;;;6.17;1.57;;;8.30;99.90;;;;;;5093733;28;20291;-79
2021/05/25 01:48:17;;;;;;;5.17;1.60;;;8.40;99.90;;;;;;5096519;28;20202;-77
2021/05/25 01:50:44;;;;;;;4.20;1.43;;;8.40;99.90;;;;;;5095697;28;20280;-78
2021/05/25 01:53:12;;;;;;;2.93;1.50;;;8.50;99.90;;;;;;5096111;28;20195;-78
2021/05/25 01:55:40;;;;;;;4.50;1.87;;;8.50;99.90;;;;;;5096360;28;20280;-78
2021/05/25 01:58:10;;;;;;;4.60;1.60;;;8.50;99.90;;;;;;5096080;28;20289;-77
2021/05/25 02:00:38;;;;;;;4.33;1.83;;;8.50;99.90;;;;;;5096304;28;20200;-78
2021/05/25 02:03:05;;;;;;;3.97;1.53;;;8.50;99.90;;;;;;5096083;28;20292;-77
2021/05/25 02:05:32;;;;;;;4.50;2.03;;;8.60;99.90;;;;;;5095451;28;20608;-77
2021/05/25 02:07:59;;;;;;;5.87;1.77;;;8.70;99.90;;;;;;5095766;28;20228;-79
2021/05/25 02:10:28;;;;;;;2.73;1.93;;;8.60;99.90;;;;;;5095652;28;20682;-79
2021/05/25 02:12:56;;;;;;;5.10;1.80;;;8.70;99.90;;;;;;5096477;28;20208;-78
2021/05/25 02:15:23;;;;;;;3.47;1.83;;;8.70;99.90;;;;;;5094180;28;20292;-78
2021/05/25 02:17:50;;;;;;;4.77;1.80;;;8.80;99.90;;;;;;5093840;28;20254;-79
2021/05/25 02:20:17;;;;;;;4.83;2.17;;;8.80;99.90;;;;;;5093914;28;20201;-78
2021/05/25 02:22:44;;;;;;;4.47;2.43;;;8.90;99.90;;;;;;5094259;28;20599;-78
2021/05/25 02:25:11;;;;;;;7.70;2.30;;;8.80;99.90;;;;;;5094298;28;20191;-80
2021/05/25 02:27:38;;;;;;;5.73;2.20;;;8.90;99.90;;;;;;5093939;28;20288;-79
2021/05/25 02:30:06;;;;;;;6.10;2.40;;;8.90;99.90;;;;;;5093944;28;20198;-79
2021/05/25 02:32:33;;;;;;;4.83;2.50;;;9.00;99.90;;;;;;5093988;28;20202;-79
2021/05/25 02:34:59;;;;;;;9.60;2.97;;;9.00;99.90;;;;;;5094143;28;20748;-78
2021/05/25 02:37:26;;;;;;;4.90;2.87;;;9.10;99.90;;;;;;5093435;28;20295;-78
2021/05/25 02:39:52;;;;;;;4.93;3.00;;;9.10;99.90;;;;;;5094384;28;20198;-78
2021/05/25 02:42:18;;;;;;;6.50;2.90;;;9.10;99.90;;;;;;5094378;28;20194;-78
2021/05/25 02:44:45;;;;;;;6.60;3.03;;;9.10;99.90;;;;;;5094211;28;20287;-79
2021/05/25 02:47:11;;;;;;;6.20;3.40;;;9.10;99.90;;;;;;5093514;28;20285;-79
2021/05/25 02:49:39;;;;;;;6.53;3.70;;;9.10;99.90;;;;;;5094273;28;20191;-79
2021/05/25 02:52:06;;;;;;;6.33;3.37;;;9.10;99.90;;;;;;5093837;28;20288;-80
2021/05/25 02:54:32;;;;;;;7.97;3.97;;;9.20;99.90;;;;;;5094266;28;20598;-80
2021/05/25 02:56:59;;;;;;;7.70;3.70;;;9.20;99.90;;;;;;5094090;28;20299;-81
2021/05/25 02:59:25;;;;;;;6.73;3.70;;;9.20;99.90;;;;;;5093667;28;20221;-80
2021/05/25 03:01:52;;;;;;;9.50;4.50;;;9.10;99.90;;;;;;5093752;28;20201;-80
2021/05/25 03:04:18;;;;;;;7.50;4.47;;;9.20;99.90;;;;;;5093872;28;20280;-81
2021/05/25 03:06:46;;;;;;;10.13;4.80;;;9.20;99.90;;;;;;5093303;28;20198;-81
2021/05/25 03:09:12;;;;;;;9.70;4.63;;;9.20;99.90;;;;;;5093716;28;20638;-80
2021/05/25 03:11:38;;;;;;;9.53;4.33;;;9.20;99.90;;;;;;5093619;28;20288;-82
2021/05/25 03:14:05;;;;;;;8.70;4.33;;;9.10;99.90;;;;;;5054450;28;1122581;-80
2021/05/25 03:16:31;;;;;;;9.37;4.23;;;9.10;99.90;;;;;;5094700;28;20219;-80
2021/05/25 03:18:58;;;;;;;11.63;3.87;;;9.10;99.90;;;;;;5094375;28;20220;-79
2021/05/25 03:21:24;;;;;;;11.10;3.93;;;9.10;99.90;;;;;;5093715;28;20228;-79
2021/05/25 03:23:53;;;;;;;8.40;3.80;;;9.10;99.90;;;;;;5094621;28;20608;-80
2021/05/25 03:26:20;;;;;;;4.30;2.97;;;9.00;99.90;;;;;;5094220;28;20409;-79
2021/05/25 03:28:47;;;;;;;6.67;3.07;;;9.00;99.90;;;;;;5094098;28;20296;-80
2021/05/25 03:31:13;;;;;;;6.33;3.57;;;9.10;99.90;;;;;;5094034;28;20195;-79
2021/05/25 03:33:40;;;;;;;10.10;4.20;;;9.20;99.90;;;;;;5093792;28;20224;-80
2021/05/25 03:36:06;;;;;;;6.03;4.40;;;9.30;99.90;;;;;;5093883;28;20274;-80
2021/05/25 03:38:33;;;;;;;9.23;5.00;;;9.30;99.90;;;;;;5078416;28;20305;-79
2021/05/25 03:41:00;;;;;;;11.53;5.53;;;9.30;99.90;;;;;;5093890;28;20335;-78
2021/05/25 03:43:26;;;;;;;8.07;6.03;;;9.30;99.90;;;;;;5093910;28;20311;-78
2021/05/25 03:45:53;;;;;;;11.50;6.00;;;9.30;99.90;;;;;;5093419;28;20285;-78
2021/05/25 03:48:19;;;;;;;13.30;6.50;;;9.30;99.90;;;;;;5093452;28;20252;-79
2021/05/25 03:50:46;;;;;;;12.47;7.27;;;9.30;99.90;;;;;;5093751;28;20212;-79
2021/05/25 03:53:12;;;;;;;14.70;7.07;;;9.30;99.90;;;;;;5093839;28;20229;-79
2021/05/25 03:55:48;;;;;;;12.23;7.70;;;9.20;99.90;;;;;;5094041;28;20299;-79
2021/05/25 04:01:00;;;;;;;16.50;8.43;;;9.10;99.90;;;;;;5091509;28;20237;-77
2021/05/25 04:03:27;;;;;;;17.70;8.60;;;9.10;99.90;;;;;;5093786;28;20202;-78
2021/05/25 04:05:54;;;;;;;14.03;7.93;;;9.00;99.90;;;;;;5093163;28;20204;-78
2021/05/25 04:08:21;;;;;;;12.87;8.97;;;9.00;99.90;;;;;;5091928;28;20633;-78
2021/05/25 04:10:48;;;;;;;12.70;8.30;;;9.10;99.90;;;;;;5092080;28;20198;-79
2021/05/25 04:13:17;;;;;;;16.90;9.23;;;9.10;99.90;;;;;;5092364;28;20225;-78
2021/05/25 04:15:47;;;;;;;16.17;9.10;;;9.00;99.90;;;;;;5092967;28;20224;-79
2021/05/25 04:18:14;;;;;;;21.83;9.50;;;9.10;99.90;;;;;;5093215;28;20224;-78
2021/05/25 04:20:40;;;;;;;12.53;8.37;;;9.00;99.90;;;;;;5093320;28;20227;-77
2021/05/25 04:23:07;;;;;;;13.13;8.30;;;9.00;99.90;;;;;;5092910;28;20203;-78
2021/05/25 04:25:33;;;;;;;14.70;7.63;;;8.90;99.90;;;;;;5093131;28;20670;-80
2021/05/25 04:27:59;;;;;;;18.10;8.13;;;9.00;99.90;;;;;;5092208;28;20662;-78
2021/05/25 04:30:27;;;;;;;15.27;7.87;;;8.90;99.90;;;;;;5092676;28;20203;-79
2021/05/25 04:32:53;;;;;;;13.67;6.93;;;9.00;99.90;;;;;;5087822;28;20280;-78
2021/05/25 04:35:20;;;;;;;12.83;6.87;;;9.10;99.90;;;;;;5083889;28;20327;-77
2021/05/25 04:37:46;;;;;;;9.33;6.30;;;9.10;99.90;;;;;;5070576;28;20822;-77
2021/05/25 04:40:13;;;;;;;12.93;6.50;;;9.10;99.90;;;;;;5090874;28;20201;-78
2021/05/25 04:42:40;;;;;;;10.50;6.57;;;9.10;99.90;;;;;;5092242;28;20240;-78
2021/05/25 04:45:08;;;;;;;11.87;6.60;;;9.20;99.90;;;;;;5092911;28;20292;-78
2021/05/25 04:47:36;;;;;;;15.77;9.10;;;9.20;99.90;;;;;;5091427;28;20197;-78
2021/05/25 04:50:05;;;;;;;12.70;8.43;;;9.20;99.90;;;;;;5092405;28;20239;-77
2021/05/25 04:52:33;;;;;;;14.33;8.80;;;9.30;99.90;;;;;;5092892;28;20255;-78
2021/05/25 04:55:00;;;;;;;14.70;9.57;;;9.30;99.90;;;;;;5092007;28;20224;-78
2021/05/25 04:57:28;;;;;;;15.37;9.63;;;9.30;99.90;;;;;;5089945;28;20209;-79
2021/05/25 04:59:55;;;;;;;16.00;10.23;;;9.20;99.90;;;;;;5091948;28;20223;-78
2021/05/25 05:02:21;;;;;;;20.03;10.30;;;9.30;99.90;;;;;;5092098;28;20202;-78
2021/05/25 05:04:48;;;;;;;16.83;11.07;;;9.30;99.90;;;;;;5092091;28;20647;-78
2021/05/25 05:07:15;;;;;;;16.50;10.90;;;9.30;99.90;;;;;;5091585;28;20197;-79
2021/05/25 05:09:41;;;;;;;18.90;12.33;;;9.30;99.90;;;;;;5092363;28;20627;-77
2021/05/25 05:12:08;;;;;;;19.27;11.77;;;9.40;99.90;;;;;;5082949;28;20647;-77
2021/05/25 05:14:34;;;;;;;17.57;11.80;;;9.40;99.90;;;;;;5092290;28;20349;-78
2021/05/25 05:17:01;;;;;;;20.33;12.27;;;9.40;99.90;;;;;;5090941;28;20203;-78
2021/05/25 05:19:27;;;;;;;19.53;12.27;;;9.50;99.90;;;;;;5088085;28;20624;-79
2021/05/25 05:21:54;;;;;;;18.67;11.50;;;9.50;99.90;;;;;;5094897;28;20285;-78
2021/05/25 05:24:21;;;;;;;24.10;12.90;;;9.50;99.90;;;;;;5088864;28;20246;-78
2021/05/25 05:26:47;;;;;;;17.17;12.13;;;9.50;99.90;;;;;;5092679;28;20573;-79
2021/05/25 05:29:14;;;;;;;20.03;12.23;;;9.60;99.90;;;;;;5095112;28;20295;-76
2021/05/25 05:31:40;;;;;;;18.87;12.50;;;9.60;99.90;;;;;;5094551;28;20247;-77
2021/05/25 05:34:07;;;;;;;21.47;12.57;;;9.70;99.90;;;;;;5086544;28;20195;-74
2021/05/25 05:36:34;;;;;;;20.17;12.83;;;9.80;99.90;;;;;;5095776;28;20196;-74
2021/05/25 05:39:02;;;;;;;19.60;12.50;;;9.90;99.90;;;;;;5096167;28;20220;-75
2021/05/25 05:41:29;;;;;;;18.20;11.77;;;10.20;99.90;;;;;;5095883;28;20658;-74
2021/05/25 05:43:55;;;;;;;20.63;11.00;;;10.40;99.90;;;;;;5095399;28;20220;-78
2021/05/25 05:46:21;;;;;;;20.13;11.33;;;10.60;99.90;;;;;;5093030;28;20287;-78
2021/05/25 05:48:48;;;;;;;16.80;11.33;;;10.60;99.90;;;;;;5096366;28;20343;-76
2021/05/25 05:51:14;;;;;;;15.27;11.00;;;10.40;99.90;;;;;;5096123;28;20214;-75
2021/05/25 05:53:40;;;;;;;16.33;10.50;;;10.30;99.90;;;;;;5096266;28;20278;-77
2021/05/25 05:56:08;;;;;;;18.53;11.43;;;10.30;99.90;;;;;;5099816;28;20242;-77
2021/05/25 05:58:34;;;;;;;14.97;10.93;;;10.20;99.90;;;;;;5100819;28;20286;-78
2021/05/25 06:01:01;;;;;;;19.10;10.00;;;10.20;99.90;;;;;;5101585;28;20250;-77
2021/05/25 06:03:27;;;;;;;17.33;9.67;;;10.10;99.90;;;;;;5104151;28;20658;-77
2021/05/25 06:05:53;;;;;;;17.27;9.23;;;10.00;99.90;;;;;;5097209;28;20200;-78
2021/05/25 06:08:21;;;;;;;12.53;8.43;;;10.00;99.90;;;;;;5097157;28;20304;-76
2021/05/25 06:10:51;;;;;;;15.63;8.57;;;10.10;99.90;;;;;;5096212;28;20239;-79
2021/05/25 06:13:19;;;;;;;10.53;7.80;;;10.10;99.90;;;;;;5086427;28;20710;-78
2021/05/25 06:15:46;;;;;;;10.47;7.47;;;10.10;99.90;;;;;;5077393;28;20232;-78
2021/05/25 06:18:13;;;;;;;10.40;6.27;;;10.00;99.90;;;;;;5084672;28;20217;-78
2021/05/25 06:20:39;;;;;;;10.27;6.07;;;10.00;99.90;;;;;;5094795;28;20203;-76
2021/05/25 06:23:05;;;;;;;7.33;6.10;;;9.90;99.90;;;;;;5095038;28;20285;-76
2021/05/25 06:25:32;;;;;;;9.63;5.87;;;9.80;99.90;;;;;;5095521;28;20296;-76
2021/05/25 06:27:58;;;;;;;9.80;5.70;;;9.80;99.90;;;;;;5095994;28;20228;-77
2021/05/25 06:30:27;;;;;;;7.20;5.10;;;9.80;99.90;;;;;;5095247;28;20229;-77
2021/05/25 06:32:54;;;;;;;5.90;4.40;;;9.80;99.90;;;;;;5094842;28;20206;-76
2021/05/25 06:35:20;;;;;;;9.20;5.00;;;9.80;99.90;;;;;;5095619;28;20220;-80
2021/05/25 06:37:47;;;;;;;8.00;5.00;;;9.80;99.90;;;;;;5095320;28;20232;-76
2021/05/25 06:40:14;;;;;;;7.27;4.77;;;9.90;99.90;;;;;;5095277;28;20239;-77
2021/05/25 06:42:40;;;;;;;8.53;4.37;;;10.20;99.90;;;;;;5095074;28;20226;-79
2021/05/25 06:45:08;;;;;;;6.10;3.80;;;11.20;99.90;;;;;;5087900;28;20201;-77
2021/05/25 06:47:35;;;;;;;6.97;3.47;;;11.60;99.90;;;;;;5074569;28;20202;-77
2021/05/25 06:50:02;;;;;;;7.57;3.87;;;11.50;99.90;;;;;;5074595;28;20228;-77
2021/05/25 06:52:28;;;;;;;5.57;3.83;;;11.20;99.90;;;;;;5074867;28;20210;-77
2021/05/25 06:54:55;;;;;;;6.40;4.20;;;11.10;99.90;;;;;;5074836;28;20779;-79
2021/05/25 06:57:21;;;;;;;7.13;4.20;;;11.10;99.90;;;;;;5074162;28;20198;-78
2021/05/25 06:59:47;;;;;;;5.60;3.80;;;11.50;99.90;;;;;;5074522;28;20291;-79
2021/05/25 07:02:14;;;;;;;9.03;3.40;;;12.20;99.90;;;;;;5086493;28;20229;-75
2021/05/25 07:04:41;;;;;;;5.80;3.30;;;12.50;99.90;;;;;;5094893;28;20197;-76
2021/05/25 07:07:07;;;;;;;6.00;3.13;;;12.50;99.90;;;;;;5094927;28;20296;-79
2021/05/25 07:09:34;;;;;;;5.50;2.93;;;12.60;99.90;;;;;;5094426;28;20199;-76
2021/05/25 07:12:02;;;;;;;6.27;2.70;;;12.70;99.90;;;;;;5093951;28;20212;-76
2021/05/25 07:14:29;;;;;;;6.57;2.60;;;12.90;99.90;;;;;;5092831;28;20209;-78
2021/05/25 07:16:56;;;;;;;4.83;2.90;;;13.00;99.90;;;;;;5074889;28;20207;-79
2021/05/25 07:19:22;;;;;;;4.47;2.60;;;12.90;99.90;;;;;;5089371;28;20259;-76
2021/05/25 07:21:50;;;;;;;7.00;3.00;;;12.70;99.90;;;;;;5094097;28;20229;-76
2021/05/25 07:24:16;;;;;;;7.90;3.20;;;12.50;99.90;;;;;;5093898;28;20286;-75
2021/05/25 07:26:43;;;;;;;8.87;3.00;;;12.50;99.90;;;;;;5093655;28;20277;-74
2021/05/25 07:29:09;;;;;;;6.83;3.13;;;12.10;99.90;;;;;;5093347;28;20292;-76
2021/05/25 07:31:36;;;;;;;9.67;4.13;;;12.10;99.90;;;;;;5093638;28;20632;-76
2021/05/25 07:34:03;;;;;;;4.97;3.83;;;12.10;99.90;;;;;;5093767;28;20747;-75
2021/05/25 07:36:29;;;;;;;7.97;3.60;;;12.00;99.90;;;;;;5094183;28;20281;-76
2021/05/25 07:38:56;;;;;;;8.37;4.40;;;12.10;99.90;;;;;;5093987;28;20217;-75
2021/05/25 07:41:23;;;;;;;10.27;4.40;;;12.00;99.90;;;;;;5092873;28;20256;-78
2021/05/25 07:43:49;;;;;;;8.53;3.97;;;11.90;99.90;;;;;;5092611;28;20296;-76
2021/05/25 07:46:17;;;;;;;8.50;4.23;;;11.90;99.90;;;;;;5076707;28;20210;-77
2021/05/25 07:48:43;;;;;;;13.90;4.13;;;12.10;99.90;;;;;;5079944;28;20220;-76
2021/05/25 07:51:10;;;;;;;8.90;4.17;;;12.40;99.90;;;;;;5093689;28;20192;-77
2021/05/25 07:53:37;;;;;;;5.77;3.10;;;12.60;99.90;;;;;;5093940;28;20249;-75
2021/05/25 07:56:05;;;;;;;9.77;4.43;;;12.80;99.90;;;;;;5093528;28;20213;-77
2021/05/25 07:58:31;;;;;;;6.23;3.10;;;13.20;99.90;;;;;;5093123;28;20684;-76
2021/05/25 08:00:58;;;;;;;7.47;2.90;;;13.60;99.90;;;;;;5092985;28;20290;-79
2021/05/25 08:03:24;;;;;;;5.17;3.03;;;13.80;99.90;;;;;;5092879;28;20213;-76
2021/05/25 08:05:51;;;;;;;7.33;3.00;;;13.90;99.90;;;;;;5093178;28;20282;-78
2021/05/25 08:08:17;;;;;;;6.13;2.67;;;14.10;99.90;;;;;;5092980;28;20206;-76
2021/05/25 08:10:44;;;;;;;8.23;3.00;;;14.20;99.90;;;;;;5092871;28;20224;-75
2021/05/25 08:13:11;;;;;;;8.10;2.53;;;14.70;99.90;;;;;;5092670;28;20290;-76
2021/05/25 08:15:39;;;;;;;4.73;2.23;;;14.60;99.90;;;;;;5081452;28;20747;-75
2021/05/25 08:18:12;;;;;;;4.57;2.40;;;14.50;99.90;;;;;;5072818;28;20196;-75
2021/05/25 08:20:39;;;;;;;5.77;2.00;;;15.20;99.90;;;;;;5072813;28;20202;-76
2021/05/25 08:23:09;;;;;;;6.67;2.37;;;17.50;99.90;;;;;;5079975;28;20230;-77
2021/05/25 08:25:36;;;;;;;6.30;2.03;;;18.80;99.90;;;;;;5092697;28;20202;-76
2021/05/25 08:28:05;;;;;;;6.77;2.07;;;20.10;99.90;;;;;;5092966;28;20599;-75
2021/05/25 08:30:35;;;;;;;9.97;2.10;;;21.50;99.90;;;;;;5092958;28;20199;-76
2021/05/25 08:33:02;;;;;;;4.70;2.00;;;21.50;99.90;;;;;;5093030;28;20657;-75
2021/05/25 08:35:32;;;;;;;8.40;2.60;;;21.30;99.90;;;;;;5093003;28;20191;-76
2021/05/25 08:37:59;;;;;;;6.53;2.10;;;21.60;99.90;;;;;;5090716;28;20191;-77
2021/05/25 08:40:27;;;;;;;5.73;2.10;;;22.50;99.90;;;;;;5082058;28;20226;-79
2021/05/25 08:42:54;;;;;;;4.30;2.00;;;23.40;99.90;;;;;;5083440;28;20226;-78
2021/05/25 08:45:22;;;;;;;5.60;1.90;;;23.20;99.90;;;;;;5079720;28;20282;-76
2021/05/25 08:47:50;;;;;;;5.15;1.70;;;24.30;99.90;;;;;;5088026;28;20654;-77
2021/05/25 08:50:19;;;;;;;4.25;1.65;;;25.60;99.90;;;;;;5092688;28;20374;-77
2021/05/25 08:52:45;;;;;;;6.70;1.88;;;25.70;99.90;;;;;;5070350;28;20235;-76
2021/05/25 08:55:12;;;;;;;3.70;1.50;;;24.60;99.90;;;;;;5082352;28;20241;-77
2021/05/25 08:57:39;;;;;;;3.25;1.38;;;23.90;99.90;;;;;;5076277;28;20199;-77
2021/05/25 09:00:08;;;;;;;5.25;1.80;;;23.40;99.90;;;;;;5074873;28;20306;-76
2021/05/25 09:02:36;;;;;;;2.10;1.40;;;22.90;99.90;;;;;;5092348;28;20573;-77
2021/05/25 09:05:06;;;;;;;5.53;1.50;;;22.00;99.90;;;;;;5078494;28;20267;-80
2021/05/25 09:07:40;;;;;;;5.27;1.20;;;21.40;99.90;;;;;;5070689;28;20221;-78
2021/05/25 09:10:09;;;;;;;6.33;1.20;;;20.70;99.90;;;;;;5072259;28;20207;-76
2021/05/25 09:12:40;;;;;;;4.53;1.10;;;19.90;99.90;;;;;;5072275;28;20286;-76
2021/05/25 09:15:09;;;;;;;3.83;1.40;;;20.20;99.90;;;;;;5071744;28;20653;-79
2021/05/25 09:17:36;;;;;;;4.30;1.50;;;20.90;99.90;;;;;;5085914;28;20206;-77
2021/05/25 09:20:04;;;;;;;4.37;1.20;;;20.70;99.90;;;;;;5092255;28;20695;-77
2021/05/25 09:22:33;;;;;;;2.83;1.30;;;20.80;99.90;;;;;;5091495;28;20285;-76
2021/05/25 09:25:07;;;;;;;4.67;1.33;;;19.90;99.90;;;;;;5086521;28;20191;-76
2021/05/25 09:27:36;;;;;;;5.97;1.27;;;19.70;99.90;;;;;;5091529;28;20182;-78
2021/05/25 09:30:20;;;;;;;3.27;1.20;;;20.20;99.90;;;;;;5089257;28;20660;-77
2021/05/25 09:32:49;;;;;;;6.43;1.37;;;21.60;99.90;;;;;;5081887;28;20195;-76
2021/05/25 09:35:19;;;;;;;4.80;1.50;;;21.50;99.90;;;;;;5091706;28;20211;-79
2021/05/25 09:37:47;;;;;;;5.63;1.00;;;20.50;99.90;;;;;;5091453;28;20191;-78
2021/05/25 09:40:15;;;;;;;3.80;1.07;;;18.90;99.90;;;;;;5092466;28;20686;-77
2021/05/25 09:42:42;;;;;;;4.47;1.43;;;16.90;99.90;;;;;;5092026;28;20213;-78
2021/05/25 09:45:12;;;;;;;6.83;1.10;;;15.60;99.90;;;;;;5089872;28;20206;-81
2021/05/25 09:47:42;;;;;;;8.03;1.40;;;14.90;99.90;;;;;;5090305;28;20956;-77
2021/05/25 09:50:10;;;;;;;3.27;1.00;;;14.20;99.90;;;;;;5090084;28;20202;-78
2021/05/25 09:53:01;;;;;;;6.33;1.10;;;13.80;99.90;;;;;;5078738;28;20715;-80
2021/05/25 09:55:29;;;;;;;6.87;1.33;;;13.60;99.90;;;;;;5083191;28;20209;-78
2021/05/25 09:57:56;;;;;;;4.33;1.00;;;13.60;99.90;;;;;;5083007;28;20337;-78
2021/05/25 10:00:29;;;;;;;5.23;1.30;;;13.80;99.90;;;;;;5087795;28;20215;-78
2021/05/25 10:03:19;;;;;;;8.33;1.73;;;13.90;99.90;;;;;;5091804;28;20198;-77
2021/05/25 10:05:48;;;;;;;4.90;1.40;;;14.00;99.90;;;;;;5089221;28;20292;-81
2021/05/25 10:08:17;;;;;;;10.17;1.73;;;14.20;99.90;;;;;;5093193;28;20199;-81
2021/05/25 10:10:45;;;;;;;6.63;1.50;;;14.60;99.90;;;;;;5092092;28;20190;-78
2021/05/25 10:13:13;;;;;;;7.30;1.73;;;15.10;99.90;;;;;;5094276;28;20194;-79
2021/05/25 10:15:42;;;;;;;8.53;1.77;;;15.60;99.90;;;;;;5091315;28;20202;-80
2021/05/25 10:21:03;;;;;;;3.73;1.00;;;15.40;99.90;;;;;;5094086;28;20191;-80
2021/05/25 10:23:33;;;;;;;3.73;0.87;;;14.10;99.90;;;;;;5092600;28;20190;-78
2021/05/25 10:26:02;;;;;;;2.00;0.73;;;13.40;99.90;;;;;;5091208;28;20199;-76
2021/05/25 10:28:29;;;;;;;4.50;1.00;;;12.80;99.90;;;;;;5083993;28;20191;-77
2021/05/25 10:30:57;;;;;;;7.30;0.90;;;12.10;99.90;;;;;;5094271;28;20703;-77
2021/05/25 10:33:29;;;;;;;3.10;0.80;;;11.70;99.90;;;;;;5085946;28;20681;-78
2021/05/25 10:35:58;;;;;;;2.67;0.80;;;11.50;99.90;;;;;;5094469;28;20193;-77
2021/05/25 10:38:27;;;;;;;1.53;0.80;;;11.40;99.90;;;;;;5094017;28;20294;-77
2021/05/25 10:40:56;;;;;;;2.53;0.90;;;11.50;99.90;;;;;;5094233;28;21444;-76
2021/05/25 10:43:43;;;;;;;1.80;0.83;;;11.40;99.90;;;;;;5095265;28;20237;-78
2021/05/25 10:46:22;;;;;;;6.70;0.90;;;11.60;99.90;;;;;;5094143;28;20256;-77
2021/05/25 10:49:03;;;;;;;5.23;0.90;;;11.60;99.90;;;;;;5089821;28;20561;-78
2021/05/25 10:52:16;;;;;;;2.87;0.80;;;11.80;99.90;;;;;;5093052;28;20278;-79
2021/05/25 10:54:51;;;;;;;5.23;1.10;;;12.00;99.90;;;;;;5082006;28;20224;-77
2021/05/25 10:57:51;;;;;;;4.27;1.20;;;12.40;99.90;;;;;;5083984;28;20286;-77
2021/05/25 11:00:20;;;;;;;5.60;1.30;;;12.70;99.90;;;;;;5091527;28;20211;-77
2021/05/25 11:02:54;;;;;;;6.13;1.57;;;13.20;99.90;;;;;;5093582;28;20634;-80
2021/05/25 11:05:44;;;;;;;3.13;0.90;;;13.50;99.90;;;;;;5093672;28;20882;-78
2021/05/25 11:08:42;;;;;;;10.17;2.70;;;13.80;99.90;;;;;;5091309;28;20626;-77
2021/05/25 11:11:32;;;;;;;8.03;1.30;;;13.90;99.90;;;;;;5083057;28;20671;-78
2021/05/25 11:14:10;;;;;;;2.53;1.07;;;13.80;99.90;;;;;;5077964;28;20793;-80
2021/05/25 11:16:38;;;;;;;4.10;1.10;;;13.90;99.90;;;;;;5093656;28;20202;-79
2021/05/25 11:19:22;;;;;;;6.10;1.23;;;13.60;99.90;;;;;;5090378;28;20275;-81
2021/05/25 11:25:00;;;;;;;3.43;1.17;;;13.30;99.90;;;;;;5091554;28;20599;-79
2021/05/25 11:27:33;;;;;;;5.50;1.60;;;13.40;99.90;;;;;;5093323;28;20281;-80
2021/05/25 11:30:04;;;;;;;6.03;1.10;;;13.60;99.90;;;;;;5092378;28;20212;-81
2021/05/25 11:32:39;;;;;;;5.77;1.30;;;13.90;99.90;;;;;;5074461;28;20203;-80
2021/05/25 11:35:06;;;;;;;3.77;1.13;;;14.20;99.90;;;;;;5088470;28;20221;-79
2021/05/25 11:37:35;;;;;;;4.43;1.40;;;14.40;99.90;;;;;;5089383;28;20199;-79
2021/05/25 11:40:03;;;;;;;6.50;1.60;;;14.70;99.90;;;;;;5078388;28;20219;-78
2021/05/25 11:42:31;;;;;;;5.77;1.53;;;15.10;99.90;;;;;;5087404;28;20290;-80
2021/05/25 11:44:59;;;;;;;5.17;1.53;;;15.80;99.90;;;;;;5087898;28;20605;-78
2021/05/25 11:47:26;;;;;;;4.57;1.37;;;16.40;99.90;;;;;;5090665;28;20620;-80
2021/05/25 11:49:53;;;;;;;7.80;1.53;;;17.60;99.90;;;;;;5090651;28;20317;-78
2021/05/25 11:52:33;;;;;;;4.27;1.10;;;18.10;99.90;;;;;;5085956;28;20207;-78
2021/05/25 11:55:01;;;;;;;3.43;1.10;;;18.20;99.90;;;;;;5083952;28;20641;-78
2021/05/25 11:57:38;;;;;;;5.23;1.20;;;17.50;99.90;;;;;;5080999;28;20269;-78
2021/05/25 12:00:08;;;;;;;4.10;1.30;;;17.60;99.90;;;;;;5085021;28;20254;-74
2021/05/25 12:02:35;;;;;;;4.83;0.97;;;17.50;99.90;;;;;;5082535;28;20277;-78
2021/05/25 12:05:08;;;;;;;4.77;1.13;;;18.00;99.90;;;;;;5086787;28;20616;-78
2021/05/25 12:07:36;;;;;;;5.37;1.40;;;18.50;99.90;;;;;;5090265;28;20210;-78
2021/05/25 12:10:04;;;;;;;6.13;1.20;;;18.50;99.90;;;;;;5071857;28;20668;-77
2021/05/25 12:12:31;;;;;;;6.47;1.10;;;18.60;99.90;;;;;;5084837;28;20642;-79
2021/05/25 12:15:01;;;;;;;5.60;1.57;;;18.70;99.90;;;;;;5083568;28;20207;-82
2021/05/25 12:17:29;;;;;;;7.53;1.33;;;18.60;99.90;;;;;;5083132;28;20561;-82
2021/05/25 12:19:59;;;;;;;6.13;1.47;;;18.20;99.90;;;;;;5088883;28;20219;-78
2021/05/25 12:22:34;;;;;;;4.87;1.30;;;18.20;99.90;;;;;;5080088;28;20557;-80
2021/05/25 12:25:28;;;;;;;5.57;1.50;;;17.90;99.90;;;;;;5090488;28;20190;-79
2021/05/25 12:28:07;;;;;;;3.77;0.90;;;17.90;99.90;;;;;;5056402;28;20569;-83
2021/05/25 12:30:34;;;;;;;6.27;1.37;;;18.20;99.90;;;;;;5084746;28;20203;-78
2021/05/25 12:33:01;;;;;;;5.13;1.20;;;18.10;99.90;;;;;;5082491;28;20316;-77
2021/05/25 12:35:29;;;;;;;5.53;1.00;;;18.30;99.90;;;;;;5077596;28;20219;-77
2021/05/25 12:38:08;;;;;;;5.00;1.00;;;18.20;99.90;;;;;;5083654;28;20191;-80
2021/05/25 12:40:35;;;;;;;2.87;0.93;;;17.80;99.90;;;;;;5079251;28;20544;-79
2021/05/25 12:43:16;;;;;;;4.40;1.47;;;17.20;99.90;;;;;;5086384;28;20374;-79
2021/05/25 12:45:44;;;;;;;4.27;1.10;;;16.90;99.90;;;;;;5088015;28;20222;-78
2021/05/25 12:48:11;;;;;;;8.10;1.63;;;16.80;99.90;;;;;;5082960;28;20662;-82
2021/05/25 12:50:41;;;;;;;5.33;1.30;;;17.00;99.90;;;;;;5082638;28;20254;-83
2021/05/25 12:53:11;;;;;;;4.10;1.10;;;17.50;99.90;;;;;;5081371;28;20190;-79
2021/05/25 12:55:41;;;;;;;6.90;1.60;;;18.10;99.90;;;;;;5090194;28;20191;-78
2021/05/25 12:58:08;;;;;;;6.97;1.40;;;18.10;99.90;;;;;;5089248;28;20271;-82
2021/05/25 13:00:40;;;;;;;2.73;1.00;;;17.80;99.90;;;;;;5085168;28;20232;-80
2021/05/25 13:03:26;;;;;;;6.57;1.17;;;17.80;99.90;;;;;;5089979;28;20203;-78